CTN342 LDZA-LQSA
Flight info
| Callsign | CTN342 |
|---|---|
| Flight time | 0h 32m |
| Altitude | 19000 |
| Route | TEBLI L187 KOMAR L608 BOSNA |
| Aircraft | A20N/M-SDE2E3FGHIRWXY/LB1 |
Departure
| Time | 2026-04-29 07:18 |
|---|---|
| Airport | Zagreb Franjo Tuđman International Airport (LDZA) |
Arrival
| Time | 2026-04-29 07:50 |
|---|---|
| Airport | Sarajevo International Airport (LQSA) |
| Time | Latitude | Longitude | Altitude | Speed | Heading |
|---|---|---|---|---|---|
| 2026-04-29 06:55 | 45.74285 | 16.08014 | 353 ft | 0 kts | 137° |
| 2026-04-29 07:07 | 45.74290 | 16.08008 | 353 ft | 2 kts | 137° |
| 2026-04-29 07:07 | 45.74301 | 16.07993 | 353 ft | 2 kts | 136° |
| 2026-04-29 07:07 | 45.74312 | 16.07978 | 353 ft | 2 kts | 137° |
| 2026-04-29 07:08 | 45.74323 | 16.07964 | 352 ft | 2 kts | 137° |
| 2026-04-29 07:08 | 45.74330 | 16.07955 | 352 ft | 2 kts | 136° |
| 2026-04-29 07:08 | 45.74338 | 16.07937 | 352 ft | 2 kts | 110° |
| 2026-04-29 07:08 | 45.74342 | 16.07916 | 351 ft | 2 kts | 90° |
| 2026-04-29 07:09 | 45.74339 | 16.07894 | 351 ft | 2 kts | 70° |
| 2026-04-29 07:09 | 45.74333 | 16.07876 | 351 ft | 1 kts | 51° |
| 2026-04-29 07:09 | 45.74328 | 16.07869 | 350 ft | 1 kts | 45° |
| 2026-04-29 07:09 | 45.74327 | 16.07867 | 350 ft | 0 kts | 46° |
| 2026-04-29 07:13 | 45.74332 | 16.07875 | 350 ft | 2 kts | 46° |
| 2026-04-29 07:13 | 45.74356 | 16.07900 | 351 ft | 6 kts | 21° |
| 2026-04-29 07:13 | 45.74408 | 16.07875 | 350 ft | 10 kts | 320° |
| 2026-04-29 07:13 | 45.74468 | 16.07796 | 350 ft | 12 kts | 316° |
| 2026-04-29 07:14 | 45.74531 | 16.07707 | 350 ft | 13 kts | 305° |
| 2026-04-29 07:14 | 45.74504 | 16.07592 | 348 ft | 14 kts | 226° |
| 2026-04-29 07:14 | 45.74430 | 16.07479 | 348 ft | 15 kts | 227° |
| 2026-04-29 07:14 | 45.74354 | 16.07363 | 347 ft | 16 kts | 227° |
| 2026-04-29 07:15 | 45.74273 | 16.07240 | 348 ft | 16 kts | 226° |
| 2026-04-29 07:15 | 45.74189 | 16.07112 | 346 ft | 17 kts | 226° |
| 2026-04-29 07:15 | 45.74104 | 16.06985 | 348 ft | 17 kts | 226° |
| 2026-04-29 07:15 | 45.74023 | 16.06862 | 349 ft | 16 kts | 226° |
| 2026-04-29 07:16 | 45.73944 | 16.06743 | 350 ft | 16 kts | 226° |
| 2026-04-29 07:16 | 45.73861 | 16.06618 | 350 ft | 17 kts | 226° |
| 2026-04-29 07:16 | 45.73779 | 16.06494 | 350 ft | 17 kts | 226° |
| 2026-04-29 07:16 | 45.73757 | 16.06378 | 350 ft | 13 kts | 308° |
| 2026-04-29 07:17 | 45.73827 | 16.06284 | 350 ft | 14 kts | 318° |
| 2026-04-29 07:17 | 45.73904 | 16.06287 | 350 ft | 4 kts | 45° |
| 2026-04-29 07:17 | 45.73905 | 16.06289 | 350 ft | 0 kts | 45° |
| 2026-04-29 07:17 | 45.73969 | 16.06385 | 350 ft | 44 kts | 46° |
| 2026-04-29 07:18 | 45.74359 | 16.06977 | 347 ft | 115 kts | 46° |
| 2026-04-29 07:18 | 45.75055 | 16.08002 | 380 ft | 166 kts | 44° |
| 2026-04-29 07:18 | 45.75831 | 16.09195 | 1053 ft | 165 kts | 51° |
| 2026-04-29 07:18 | 45.76381 | 16.10584 | 1861 ft | 163 kts | 76° |
| 2026-04-29 07:19 | 45.76336 | 16.12196 | 2481 ft | 173 kts | 99° |
| 2026-04-29 07:19 | 45.76017 | 16.13970 | 2926 ft | 194 kts | 103° |
| 2026-04-29 07:19 | 45.75659 | 16.15877 | 3496 ft | 208 kts | 103° |
| 2026-04-29 07:19 | 45.75295 | 16.17982 | 3957 ft | 230 kts | 102° |
| 2026-04-29 07:20 | 45.74927 | 16.20285 | 4689 ft | 241 kts | 101° |
| 2026-04-29 07:20 | 45.74572 | 16.22585 | 5605 ft | 244 kts | 101° |
| 2026-04-29 07:20 | 45.74212 | 16.24977 | 6353 ft | 248 kts | 101° |
| 2026-04-29 07:20 | 45.73853 | 16.27388 | 6811 ft | 251 kts | 100° |
| 2026-04-29 07:21 | 45.73421 | 16.29807 | 6970 ft | 254 kts | 111° |
| 2026-04-29 07:21 | 45.72452 | 16.31949 | 6971 ft | 256 kts | 133° |
| 2026-04-29 07:21 | 45.71164 | 16.33698 | 6977 ft | 256 kts | 136° |
| 2026-04-29 07:21 | 45.69838 | 16.35401 | 6978 ft | 256 kts | 137° |
| 2026-04-29 07:22 | 45.68523 | 16.37099 | 6978 ft | 256 kts | 136° |
| 2026-04-29 07:22 | 45.67180 | 16.38721 | 6977 ft | 256 kts | 143° |
| 2026-04-29 07:22 | 45.65630 | 16.40010 | 7023 ft | 263 kts | 154° |
| 2026-04-29 07:22 | 45.63901 | 16.41100 | 7399 ft | 282 kts | 156° |
| 2026-04-29 07:23 | 45.62085 | 16.42194 | 8236 ft | 288 kts | 156° |
| 2026-04-29 07:23 | 45.60228 | 16.43311 | 9123 ft | 291 kts | 157° |
| 2026-04-29 07:23 | 45.58359 | 16.44442 | 9937 ft | 296 kts | 157° |
| 2026-04-29 07:23 | 45.56442 | 16.45604 | 10615 ft | 307 kts | 158° |
| 2026-04-29 07:24 | 45.54435 | 16.46823 | 11059 ft | 324 kts | 158° |
| 2026-04-29 07:24 | 45.52333 | 16.48100 | 11632 ft | 336 kts | 158° |
| 2026-04-29 07:24 | 45.50174 | 16.49413 | 12424 ft | 340 kts | 158° |
| 2026-04-29 07:24 | 45.47995 | 16.50738 | 13223 ft | 343 kts | 158° |
| 2026-04-29 07:25 | 45.45806 | 16.52067 | 13987 ft | 347 kts | 159° |
| 2026-04-29 07:25 | 45.43560 | 16.53431 | 14722 ft | 352 kts | 159° |
| 2026-04-29 07:25 | 45.41314 | 16.54795 | 15403 ft | 357 kts | 159° |
| 2026-04-29 07:25 | 45.39034 | 16.56178 | 16074 ft | 362 kts | 159° |
| 2026-04-29 07:26 | 45.36720 | 16.57579 | 16744 ft | 366 kts | 160° |
| 2026-04-29 07:26 | 45.34345 | 16.59016 | 17398 ft | 371 kts | 160° |
| 2026-04-29 07:26 | 45.31965 | 16.60455 | 18039 ft | 376 kts | 160° |
| 2026-04-29 07:26 | 45.29547 | 16.61914 | 18664 ft | 380 kts | 160° |
| 2026-04-29 07:27 | 45.27136 | 16.63367 | 19045 ft | 383 kts | 160° |
| 2026-04-29 07:27 | 45.24661 | 16.64859 | 19144 ft | 384 kts | 160° |
| 2026-04-29 07:27 | 45.22235 | 16.66321 | 19144 ft | 383 kts | 161° |
| 2026-04-29 07:27 | 45.19759 | 16.67784 | 19151 ft | 382 kts | 163° |
| 2026-04-29 07:28 | 45.17281 | 16.69110 | 19148 ft | 382 kts | 163° |
| 2026-04-29 07:28 | 45.14788 | 16.70425 | 19145 ft | 382 kts | 164° |
| 2026-04-29 07:28 | 45.12304 | 16.71731 | 19146 ft | 382 kts | 164° |
| 2026-04-29 07:28 | 45.09828 | 16.73034 | 19151 ft | 382 kts | 164° |
| 2026-04-29 07:29 | 45.07348 | 16.74339 | 19142 ft | 382 kts | 164° |
| 2026-04-29 07:29 | 45.04852 | 16.75652 | 19146 ft | 382 kts | 163° |
| 2026-04-29 07:29 | 45.02361 | 16.76962 | 19139 ft | 382 kts | 164° |
| 2026-04-29 07:29 | 44.99890 | 16.78261 | 19125 ft | 382 kts | 164° |
| 2026-04-29 07:30 | 44.97406 | 16.79659 | 19131 ft | 385 kts | 157° |
| 2026-04-29 07:30 | 44.95146 | 16.81695 | 19133 ft | 388 kts | 143° |
| 2026-04-29 07:30 | 44.93240 | 16.84364 | 19124 ft | 389 kts | 133° |
| 2026-04-29 07:31 | 44.89779 | 16.90199 | 19134 ft | 388 kts | 131° |
| 2026-04-29 07:31 | 44.88042 | 16.93128 | 19137 ft | 387 kts | 131° |
| 2026-04-29 07:31 | 44.86312 | 16.95997 | 19130 ft | 387 kts | 132° |
| 2026-04-29 07:31 | 44.84564 | 16.98867 | 19134 ft | 387 kts | 132° |
| 2026-04-29 07:32 | 44.82804 | 17.01742 | 19135 ft | 387 kts | 132° |
| 2026-04-29 07:32 | 44.81063 | 17.04578 | 19127 ft | 387 kts | 132° |
| 2026-04-29 07:32 | 44.79297 | 17.07452 | 19120 ft | 387 kts | 132° |
| 2026-04-29 07:32 | 44.77529 | 17.10328 | 19137 ft | 388 kts | 132° |
| 2026-04-29 07:33 | 44.75780 | 17.13169 | 19124 ft | 388 kts | 132° |
| 2026-04-29 07:33 | 44.74013 | 17.16038 | 19145 ft | 388 kts | 132° |
| 2026-04-29 07:33 | 44.72253 | 17.18892 | 18947 ft | 387 kts | 132° |
| 2026-04-29 07:33 | 44.70497 | 17.21738 | 18675 ft | 385 kts | 132° |
| 2026-04-29 07:34 | 44.68766 | 17.24541 | 18437 ft | 383 kts | 132° |
| 2026-04-29 07:34 | 44.67030 | 17.27348 | 18194 ft | 381 kts | 132° |
| 2026-04-29 07:34 | 44.65284 | 17.30167 | 17937 ft | 380 kts | 132° |
| 2026-04-29 07:34 | 44.63549 | 17.32963 | 17677 ft | 377 kts | 132° |
| 2026-04-29 07:35 | 44.61853 | 17.35715 | 17437 ft | 376 kts | 131° |
| 2026-04-29 07:35 | 44.60167 | 17.38469 | 17204 ft | 374 kts | 131° |
| 2026-04-29 07:35 | 44.58474 | 17.41236 | 16956 ft | 372 kts | 131° |
| 2026-04-29 07:35 | 44.56790 | 17.43985 | 16702 ft | 370 kts | 131° |
| 2026-04-29 07:36 | 44.55128 | 17.46693 | 16465 ft | 368 kts | 131° |
| 2026-04-29 07:36 | 44.53449 | 17.49424 | 16228 ft | 366 kts | 131° |
| 2026-04-29 07:36 | 44.51798 | 17.52108 | 15995 ft | 364 kts | 131° |
| 2026-04-29 07:36 | 44.50160 | 17.54769 | 15666 ft | 362 kts | 131° |
| 2026-04-29 07:37 | 44.48527 | 17.57415 | 15323 ft | 360 kts | 131° |
| 2026-04-29 07:37 | 44.46896 | 17.60059 | 14936 ft | 358 kts | 131° |
| 2026-04-29 07:37 | 44.45296 | 17.62649 | 14546 ft | 355 kts | 131° |
| 2026-04-29 07:37 | 44.43683 | 17.65258 | 14161 ft | 353 kts | 132° |
| 2026-04-29 07:38 | 44.42084 | 17.67843 | 13761 ft | 351 kts | 132° |
| 2026-04-29 07:38 | 44.40478 | 17.70435 | 13356 ft | 349 kts | 132° |
| 2026-04-29 07:38 | 44.38899 | 17.72982 | 12951 ft | 346 kts | 132° |
| 2026-04-29 07:38 | 44.37254 | 17.75346 | 12558 ft | 342 kts | 141° |
| 2026-04-29 07:39 | 44.35337 | 17.77252 | 12210 ft | 336 kts | 152° |
| 2026-04-29 07:39 | 44.33284 | 17.78792 | 11811 ft | 333 kts | 155° |
| 2026-04-29 07:39 | 44.31227 | 17.80246 | 11412 ft | 331 kts | 155° |
| 2026-04-29 07:39 | 44.29175 | 17.81690 | 11032 ft | 328 kts | 155° |
| 2026-04-29 07:40 | 44.27152 | 17.83123 | 10629 ft | 326 kts | 155° |
| 2026-04-29 07:40 | 44.25149 | 17.84550 | 10269 ft | 323 kts | 155° |
| 2026-04-29 07:40 | 44.23180 | 17.85959 | 10029 ft | 315 kts | 155° |
| 2026-04-29 07:40 | 44.21278 | 17.87324 | 9953 ft | 300 kts | 155° |
| 2026-04-29 07:41 | 44.19429 | 17.88650 | 9634 ft | 297 kts | 154° |
| 2026-04-29 07:41 | 44.17598 | 17.89962 | 9276 ft | 295 kts | 154° |
| 2026-04-29 07:41 | 44.15796 | 17.91253 | 8930 ft | 292 kts | 154° |
| 2026-04-29 07:41 | 44.13989 | 17.92546 | 8587 ft | 290 kts | 154° |
| 2026-04-29 07:42 | 44.12216 | 17.93815 | 8255 ft | 287 kts | 154° |
| 2026-04-29 07:42 | 44.10450 | 17.95079 | 7922 ft | 285 kts | 154° |
| 2026-04-29 07:42 | 44.08697 | 17.96333 | 7587 ft | 282 kts | 154° |
| 2026-04-29 07:42 | 44.06975 | 17.97562 | 7269 ft | 279 kts | 154° |
| 2026-04-29 07:43 | 44.05267 | 17.98783 | 7163 ft | 266 kts | 154° |
| 2026-04-29 07:43 | 44.03670 | 17.99925 | 7150 ft | 251 kts | 154° |
| 2026-04-29 07:43 | 44.02157 | 18.00967 | 7148 ft | 235 kts | 158° |
| 2026-04-29 07:43 | 44.00662 | 18.01771 | 6981 ft | 229 kts | 162° |
| 2026-04-29 07:44 | 43.99160 | 18.02480 | 6669 ft | 229 kts | 163° |
| 2026-04-29 07:44 | 43.97655 | 18.03179 | 6369 ft | 228 kts | 163° |
| 2026-04-29 07:44 | 43.96146 | 18.03883 | 6073 ft | 227 kts | 162° |
| 2026-04-29 07:44 | 43.94650 | 18.04582 | 5783 ft | 226 kts | 162° |
| 2026-04-29 07:45 | 43.93205 | 18.05336 | 5484 ft | 223 kts | 149° |
| 2026-04-29 07:45 | 43.92165 | 18.06822 | 5398 ft | 209 kts | 118° |
| 2026-04-29 07:45 | 43.91545 | 18.08542 | 5431 ft | 190 kts | 116° |
| 2026-04-29 07:45 | 43.91011 | 18.10065 | 5388 ft | 162 kts | 116° |
| 2026-04-29 07:46 | 43.90541 | 18.11388 | 5256 ft | 147 kts | 116° |
| 2026-04-29 07:46 | 43.90089 | 18.12637 | 4875 ft | 145 kts | 116° |
| 2026-04-29 07:46 | 43.89635 | 18.13879 | 4638 ft | 145 kts | 116° |
| 2026-04-29 07:46 | 43.89176 | 18.15125 | 4476 ft | 145 kts | 116° |
| 2026-04-29 07:47 | 43.88717 | 18.16368 | 4232 ft | 144 kts | 116° |
| 2026-04-29 07:47 | 43.88264 | 18.17588 | 4011 ft | 142 kts | 116° |
| 2026-04-29 07:47 | 43.87810 | 18.18805 | 3802 ft | 142 kts | 116° |
| 2026-04-29 07:47 | 43.87360 | 18.20010 | 3598 ft | 141 kts | 116° |
| 2026-04-29 07:48 | 43.86912 | 18.21211 | 3397 ft | 141 kts | 115° |
| 2026-04-29 07:48 | 43.86465 | 18.22408 | 3198 ft | 140 kts | 115° |
| 2026-04-29 07:48 | 43.86020 | 18.23601 | 2998 ft | 140 kts | 115° |
| 2026-04-29 07:48 | 43.85574 | 18.24798 | 2801 ft | 139 kts | 115° |
| 2026-04-29 07:49 | 43.85130 | 18.25991 | 2601 ft | 139 kts | 115° |
| 2026-04-29 07:49 | 43.84685 | 18.27181 | 2404 ft | 138 kts | 116° |
| 2026-04-29 07:49 | 43.84244 | 18.28362 | 2209 ft | 138 kts | 115° |
| 2026-04-29 07:49 | 43.83810 | 18.29540 | 2019 ft | 138 kts | 115° |
| 2026-04-29 07:50 | 43.83366 | 18.30716 | 1838 ft | 137 kts | 115° |
| 2026-04-29 07:50 | 43.82928 | 18.31883 | 1663 ft | 136 kts | 115° |
| 2026-04-29 07:50 | 43.82543 | 18.32928 | 1660 ft | 101 kts | 116° |
| 2026-04-29 07:50 | 43.82296 | 18.33581 | 1674 ft | 45 kts | 118° |
| 2026-04-29 07:51 | 43.82306 | 18.33646 | 1674 ft | 12 kts | 265° |
| 2026-04-29 07:51 | 43.82283 | 18.33647 | 1674 ft | 6 kts | 89° |
| 2026-04-29 07:51 | 43.82356 | 18.33666 | 1674 ft | 15 kts | 345° |
| 2026-04-29 07:51 | 43.82450 | 18.33623 | 1674 ft | 10 kts | 325° |
| 2026-04-29 07:52 | 43.82500 | 18.33592 | 1673 ft | 7 kts | 27° |
| 2026-04-29 07:52 | 43.82541 | 18.33622 | 1675 ft | 3 kts | 30° |
| 2026-04-29 07:52 | 43.82543 | 18.33624 | 1675 ft | 0 kts | 30° |
| 2026-04-29 07:52 | 43.82544 | 18.33625 | 1675 ft | 0 kts | 30° |